createdAt,value
2023-05-24T00:01:13.847Z,25.50
2023-05-24T00:03:46.927Z,21.83
2023-05-24T00:06:21.961Z,23.33
2023-05-24T00:08:49.830Z,27.50
2023-05-24T00:11:18.032Z,20.83
2023-05-24T00:13:52.861Z,25.77
2023-05-24T00:16:20.871Z,23.83
2023-05-24T00:18:50.414Z,27.97
2023-05-24T00:21:25.005Z,29.93
2023-05-24T00:23:52.920Z,31.40
2023-05-24T00:26:21.561Z,37.23
2023-05-24T00:28:55.941Z,40.67
2023-05-24T00:31:23.972Z,46.43
2023-05-24T00:33:53.159Z,50.17
2023-05-24T00:36:27.936Z,52.63
2023-05-24T00:39:01.795Z,57.63
2023-05-24T00:41:35.901Z,51.53
2023-05-24T00:44:03.770Z,51.10
2023-05-24T00:46:33.709Z,56.90
2023-05-24T00:49:09.882Z,64.47
2023-05-24T00:51:38.800Z,58.37
2023-05-24T00:54:06.991Z,59.00
2023-05-24T00:56:41.907Z,56.73
2023-05-24T00:59:10.086Z,61.67
2023-05-24T01:01:38.034Z,50.93
2023-05-24T01:04:13.898Z,59.70
2023-05-24T01:06:53.682Z,52.10
2023-05-24T01:09:40.841Z,55.60
2023-05-24T01:12:24.822Z,51.20
2023-05-24T01:15:12.915Z,49.30
2023-05-24T01:17:48.882Z,47.47
2023-05-24T01:20:25.936Z,39.87
2023-05-24T01:23:19.106Z,51.50
2023-05-24T01:26:02.022Z,44.63
2023-05-24T01:28:32.951Z,48.83
2023-05-24T01:31:01.703Z,48.00
2023-05-24T01:33:36.758Z,47.27
2023-05-24T01:36:11.208Z,49.87
2023-05-24T01:38:52.928Z,50.27
2023-05-24T01:41:33.893Z,43.00
2023-05-24T01:44:15.921Z,46.23
2023-05-24T01:46:46.662Z,49.23
2023-05-24T01:49:26.916Z,46.60
2023-05-24T01:52:00.333Z,46.37
2023-05-24T01:54:39.788Z,48.50
2023-05-24T01:57:09.950Z,46.63
2023-05-24T01:59:50.129Z,44.30
2023-05-24T02:02:18.365Z,45.70
2023-05-24T02:04:46.311Z,48.40
2023-05-24T02:07:20.906Z,47.00
2023-05-24T02:09:48.812Z,46.30
2023-05-24T02:12:16.969Z,52.37
2023-05-24T02:14:53.012Z,54.97
2023-05-24T02:17:20.932Z,55.90
2023-05-24T02:19:48.805Z,52.33
2023-05-24T02:22:22.986Z,50.73
2023-05-24T02:24:50.825Z,53.60
2023-05-24T02:27:18.723Z,54.60
2023-05-24T02:29:54.989Z,54.17
2023-05-24T02:32:22.829Z,47.83
2023-05-24T02:34:50.676Z,49.43
2023-05-24T02:37:25.296Z,46.00
2023-05-24T02:39:59.887Z,41.77
2023-05-24T02:42:33.975Z,41.40
2023-05-24T02:45:03.498Z,43.13
2023-05-24T02:47:31.436Z,49.80
2023-05-24T02:50:06.192Z,46.57
2023-05-24T02:52:34.231Z,45.73
2023-05-24T02:55:02.030Z,38.10
2023-05-24T02:57:36.886Z,41.43
2023-05-24T03:00:09.282Z,32.80
2023-05-24T03:02:45.025Z,37.53
2023-05-24T03:05:12.916Z,29.27
2023-05-24T03:07:40.994Z,25.70
2023-05-24T03:10:16.118Z,26.67
2023-05-24T03:12:43.992Z,23.80
2023-05-24T03:15:13.772Z,21.67
2023-05-24T03:17:48.061Z,17.20
2023-05-24T03:20:17.639Z,19.40
2023-05-24T03:22:45.792Z,16.70
2023-05-24T03:25:21.019Z,15.60
2023-05-24T03:27:49.196Z,17.87
2023-05-24T03:30:18.450Z,16.50
2023-05-24T03:32:52.910Z,16.73
2023-05-24T03:35:21.114Z,16.83
2023-05-24T03:38:01.967Z,15.10
2023-05-24T03:40:32.694Z,15.00
2023-05-24T03:43:01.871Z,16.57
2023-05-24T03:45:40.061Z,15.57
2023-05-24T03:48:08.395Z,17.07
2023-05-24T03:50:36.651Z,15.87
2023-05-24T03:53:10.958Z,17.13
2023-05-24T03:55:38.913Z,13.60
2023-05-24T03:58:06.858Z,18.13
2023-05-24T04:00:43.091Z,16.13
2023-05-24T04:03:12.141Z,14.73
2023-05-24T04:05:40.081Z,12.77
2023-05-24T04:08:14.953Z,12.37
2023-05-24T04:10:43.066Z,13.33
2023-05-24T04:13:11.248Z,13.47
2023-05-24T04:15:46.853Z,14.30
2023-05-24T04:18:14.961Z,12.57
2023-05-24T04:20:43.013Z,14.10
2023-05-24T04:23:17.984Z,13.00
2023-05-24T04:25:46.185Z,13.03
2023-05-24T04:28:15.301Z,11.33
2023-05-24T04:30:52.892Z,15.77
2023-05-24T04:33:20.753Z,14.57
2023-05-24T04:35:48.571Z,13.43
2023-05-24T04:38:24.125Z,15.37
2023-05-24T04:40:52.247Z,11.80
2023-05-24T04:43:20.180Z,10.90
2023-05-24T04:45:56.262Z,13.70
2023-05-24T04:48:24.757Z,12.70
2023-05-24T04:50:53.149Z,11.00
2023-05-24T04:53:27.937Z,12.20
2023-05-24T04:55:55.944Z,11.13
2023-05-24T04:58:23.920Z,10.47
2023-05-24T05:00:59.973Z,10.50
2023-05-24T05:03:27.951Z,12.20
2023-05-24T05:05:55.853Z,11.30
2023-05-24T05:08:29.971Z,11.50
2023-05-24T05:10:57.787Z,11.17
2023-05-24T05:13:25.655Z,10.60
2023-05-24T05:16:00.999Z,11.13
2023-05-24T05:18:28.870Z,11.50
2023-05-24T05:20:57.235Z,11.47
2023-05-24T05:23:32.009Z,12.83
2023-05-24T05:25:59.828Z,12.83
2023-05-24T05:28:27.703Z,12.33
2023-05-24T05:31:05.240Z,11.27
2023-05-24T05:33:33.752Z,10.47
2023-05-24T05:36:01.685Z,10.53
2023-05-24T05:38:36.154Z,10.17
2023-05-24T05:41:10.919Z,8.87
2023-05-24T05:43:46.981Z,10.27
2023-05-24T05:46:16.638Z,10.33
2023-05-24T05:48:46.400Z,9.65
2023-05-24T05:51:20.975Z,9.47
2023-05-24T05:53:48.852Z,8.63
2023-05-24T05:56:17.706Z,8.40
2023-05-24T05:58:59.063Z,8.55
2023-05-24T06:01:28.297Z,8.68
2023-05-24T06:03:56.291Z,8.45
2023-05-24T06:06:31.011Z,8.07
2023-05-24T06:08:59.183Z,10.27
2023-05-24T06:11:28.009Z,9.07
2023-05-24T06:14:03.004Z,9.18
2023-05-24T06:16:32.686Z,7.70
2023-05-24T06:19:05.930Z,7.97
2023-05-24T06:21:42.931Z,7.75
2023-05-24T06:24:11.303Z,7.80
2023-05-24T06:26:39.084Z,6.88
2023-05-24T06:29:14.076Z,7.82
2023-05-24T06:31:43.686Z,7.40
2023-05-24T06:34:11.948Z,6.90
2023-05-24T06:36:50.129Z,7.55
2023-05-24T06:39:26.180Z,7.55
2023-05-24T06:42:01.178Z,15.50
2023-05-24T06:44:34.065Z,8.07
2023-05-24T06:47:10.017Z,10.65
2023-05-24T06:49:38.111Z,7.15
2023-05-24T06:52:07.726Z,6.97
2023-05-24T06:54:43.023Z,7.55
2023-05-24T06:57:10.944Z,7.63
2023-05-24T06:59:39.043Z,6.88
2023-05-24T07:02:15.974Z,7.13
2023-05-24T07:04:43.918Z,8.57
2023-05-24T07:07:13.624Z,6.40
2023-05-24T07:09:50.834Z,7.40
2023-05-24T07:12:18.741Z,6.90
2023-05-24T07:14:46.874Z,6.88
2023-05-24T07:17:23.152Z,7.10
2023-05-24T07:19:51.425Z,7.03
2023-05-24T07:22:19.373Z,7.80
2023-05-24T07:24:54.059Z,9.27
2023-05-24T07:27:22.566Z,7.25
2023-05-24T07:29:51.014Z,7.63
2023-05-24T07:32:27.146Z,6.80
2023-05-24T07:34:55.045Z,8.27
2023-05-24T07:37:36.337Z,7.78
2023-05-24T07:40:05.454Z,7.20
2023-05-24T07:42:33.225Z,7.80
2023-05-24T07:45:08.165Z,8.48
2023-05-24T07:47:37.445Z,8.48
2023-05-24T07:50:06.279Z,7.43
2023-05-24T07:52:41.032Z,8.80
2023-05-24T07:55:09.750Z,9.68
2023-05-24T07:57:37.590Z,8.32
2023-05-24T08:00:20.978Z,8.85
2023-05-24T08:02:50.318Z,9.32
2023-05-24T08:05:18.246Z,11.25
2023-05-24T08:07:52.905Z,9.73
2023-05-24T08:10:21.803Z,9.80
2023-05-24T08:12:51.505Z,10.55
2023-05-24T08:15:26.303Z,10.68
2023-05-24T08:17:55.477Z,9.93
2023-05-24T08:20:23.482Z,8.82
2023-05-24T08:22:57.883Z,10.27
2023-05-24T08:25:27.248Z,8.90
2023-05-24T08:27:57.263Z,9.90
2023-05-24T08:30:32.002Z,10.40
2023-05-24T08:33:01.314Z,9.90
2023-05-24T08:35:29.113Z,9.60
2023-05-24T08:38:04.083Z,10.27
2023-05-24T08:40:39.194Z,10.95
2023-05-24T08:43:18.939Z,10.63
2023-05-24T08:45:47.438Z,9.02
2023-05-24T08:48:18.347Z,10.10
2023-05-24T08:50:54.238Z,12.02
2023-05-24T08:53:23.772Z,9.70
2023-05-24T08:55:53.287Z,10.63
2023-05-24T08:58:28.059Z,11.27
2023-05-24T09:00:55.981Z,10.48
2023-05-24T09:03:26.457Z,11.35
2023-05-24T09:06:01.046Z,10.95
2023-05-24T09:08:29.860Z,10.63
2023-05-24T09:10:58.136Z,11.10
2023-05-24T09:13:34.073Z,10.60
2023-05-24T09:16:02.834Z,12.00
2023-05-24T09:18:32.015Z,11.40
2023-05-24T09:21:07.024Z,10.77
2023-05-24T09:23:35.230Z,10.82
2023-05-24T09:26:15.957Z,11.27
2023-05-24T09:28:44.324Z,11.40
2023-05-24T09:31:12.953Z,10.00
2023-05-24T09:33:48.920Z,11.50
2023-05-24T09:36:18.598Z,10.65
2023-05-24T09:39:00.912Z,11.90
2023-05-24T09:41:28.938Z,10.40
2023-05-24T09:43:58.310Z,9.27
2023-05-24T09:46:34.099Z,10.73
2023-05-24T09:49:06.857Z,9.75
2023-05-24T09:51:45.205Z,10.27
2023-05-24T09:54:13.979Z,9.65
2023-05-24T09:56:41.853Z,9.57
2023-05-24T09:59:17.058Z,9.57
2023-05-24T10:01:45.251Z,9.63
2023-05-24T10:04:14.594Z,9.43
2023-05-24T10:06:49.998Z,10.68
2023-05-24T10:09:18.219Z,10.13
2023-05-24T10:11:46.676Z,9.82
2023-05-24T10:14:21.939Z,9.50
2023-05-24T10:16:50.131Z,10.18
2023-05-24T10:19:19.498Z,10.68
2023-05-24T10:21:55.091Z,9.95
2023-05-24T10:24:27.359Z,10.07
2023-05-24T10:27:04.091Z,9.85
2023-05-24T10:29:42.220Z,9.82
2023-05-24T10:32:17.010Z,10.43
2023-05-24T10:34:47.574Z,10.25
2023-05-24T10:37:36.252Z,10.32
2023-05-24T10:40:06.345Z,9.93
2023-05-24T10:42:34.358Z,9.52
2023-05-24T10:45:37.928Z,11.43
2023-05-24T10:48:33.308Z,10.07
2023-05-24T10:51:43.057Z,11.25
2023-05-24T10:54:16.489Z,10.23
2023-05-24T10:56:53.226Z,10.38
2023-05-24T10:59:39.822Z,9.85
2023-05-24T11:02:20.076Z,10.82
2023-05-24T11:04:49.200Z,10.70
2023-05-24T11:07:26.929Z,10.60
2023-05-24T11:09:59.823Z,10.68
2023-05-24T11:12:40.080Z,10.15
2023-05-24T11:15:10.752Z,9.65
2023-05-24T11:18:20.067Z,9.50
2023-05-24T11:20:49.627Z,9.85
2023-05-24T11:23:27.105Z,9.18
2023-05-24T11:25:54.909Z,9.45
2023-05-24T11:28:23.414Z,9.45
2023-05-24T11:30:58.073Z,10.15
2023-05-24T11:33:26.064Z,11.23
2023-05-24T11:35:56.418Z,9.60
2023-05-24T11:38:34.013Z,9.93
2023-05-24T11:41:09.055Z,11.30
2023-05-24T11:43:44.121Z,10.63
2023-05-24T11:46:12.260Z,10.73
2023-05-24T11:48:42.190Z,11.40
2023-05-24T11:51:25.062Z,11.25
2023-05-24T11:53:55.010Z,10.88
2023-05-24T11:56:23.283Z,11.43
2023-05-24T11:58:58.227Z,10.20
2023-05-24T12:01:27.424Z,10.77
2023-05-24T12:03:55.891Z,10.35
2023-05-24T12:06:30.103Z,10.88
2023-05-24T12:08:59.334Z,10.85
2023-05-24T12:11:28.393Z,11.02
2023-05-24T12:14:03.037Z,10.05
2023-05-24T12:16:33.225Z,9.77
2023-05-24T12:19:07.164Z,10.35
2023-05-24T12:21:49.804Z,9.73
2023-05-24T12:24:20.440Z,9.07
2023-05-24T12:26:56.135Z,9.52
2023-05-24T12:29:23.937Z,10.40
2023-05-24T12:31:51.893Z,8.88
2023-05-24T12:34:26.974Z,9.80
2023-05-24T12:36:56.339Z,9.73
2023-05-24T12:39:42.088Z,10.10
2023-05-24T12:42:12.183Z,9.60
2023-05-24T12:44:40.915Z,9.95
2023-05-24T12:47:16.087Z,9.65
2023-05-24T12:49:44.638Z,9.65
2023-05-24T12:52:13.141Z,9.93
2023-05-24T12:54:49.117Z,9.55
2023-05-24T12:57:16.936Z,8.82
2023-05-24T12:59:45.046Z,8.65
2023-05-24T13:02:20.233Z,9.55
2023-05-24T13:04:48.254Z,8.20
2023-05-24T13:07:16.151Z,9.00
2023-05-24T13:09:52.066Z,7.80
2023-05-24T13:12:19.852Z,8.95
2023-05-24T13:14:49.114Z,8.80
2023-05-24T13:17:25.130Z,8.85
2023-05-24T13:19:53.310Z,8.55
2023-05-24T13:22:21.470Z,8.55
2023-05-24T13:24:57.210Z,8.98
2023-05-24T13:27:25.083Z,8.32
2023-05-24T13:30:00.853Z,8.02
2023-05-24T13:32:36.132Z,9.40
2023-05-24T13:35:06.663Z,10.18
2023-05-24T13:37:56.093Z,8.52
2023-05-24T13:40:26.109Z,9.90
2023-05-24T13:42:54.262Z,9.38
2023-05-24T13:45:29.095Z,8.98
2023-05-24T13:48:03.677Z,8.50
2023-05-24T13:50:39.165Z,9.23
2023-05-24T13:53:08.915Z,9.85
2023-05-24T13:55:38.735Z,9.20
2023-05-24T13:58:13.213Z,9.85
2023-05-24T14:00:42.541Z,8.73
2023-05-24T14:03:12.906Z,8.65
2023-05-24T14:05:48.235Z,8.50
2023-05-24T14:08:16.498Z,7.93
2023-05-24T14:10:46.960Z,9.20
2023-05-24T14:13:55.709Z,7.85
2023-05-24T14:16:09.357Z,8.55
2023-05-24T14:18:44.146Z,7.25
2023-05-24T14:21:11.971Z,8.30
2023-05-24T14:23:40.154Z,7.78
2023-05-24T14:26:16.406Z,6.82
2023-05-24T14:28:45.112Z,7.50
2023-05-24T14:31:13.106Z,7.40
2023-05-24T14:33:48.105Z,11.45
2023-05-24T14:36:15.980Z,8.10
2023-05-24T14:38:57.141Z,8.05
2023-05-24T14:41:26.422Z,9.20
2023-05-24T14:43:54.269Z,8.45
2023-05-24T14:46:29.035Z,7.85
2023-05-24T14:48:57.029Z,7.05
2023-05-24T14:51:25.443Z,7.53
2023-05-24T14:54:00.159Z,7.10
2023-05-24T14:56:29.403Z,6.75
2023-05-24T14:58:57.470Z,6.82
2023-05-24T15:01:32.142Z,6.82
2023-05-24T15:04:00.267Z,8.95
2023-05-24T15:06:29.928Z,7.90
2023-05-24T15:09:04.296Z,6.55
2023-05-24T15:11:34.147Z,6.45
2023-05-24T15:14:02.046Z,6.07
2023-05-24T15:16:36.193Z,6.57
2023-05-24T15:19:04.097Z,6.05
2023-05-24T15:21:31.927Z,6.45
2023-05-24T15:24:06.040Z,8.50
2023-05-24T15:26:35.278Z,6.32
2023-05-24T15:29:04.596Z,5.45
2023-05-24T15:31:39.179Z,6.35
2023-05-24T15:34:07.115Z,6.75
2023-05-24T15:36:35.062Z,6.50
2023-05-24T15:39:10.191Z,6.80
2023-05-24T15:41:39.527Z,7.22
2023-05-24T15:44:08.822Z,6.82
2023-05-24T15:46:43.083Z,7.20
2023-05-24T15:49:10.897Z,6.85
2023-05-24T15:54:16.039Z,6.38
2023-05-24T15:56:45.280Z,6.88
2023-05-24T15:59:13.138Z,6.32
2023-05-24T16:01:48.244Z,6.75
2023-05-24T16:04:16.208Z,7.15
2023-05-24T16:06:43.996Z,6.13
2023-05-24T16:09:18.355Z,5.60
2023-05-24T16:11:49.396Z,8.40
2023-05-24T16:14:17.472Z,8.25
2023-05-24T16:16:52.198Z,6.25
2023-05-24T16:19:20.090Z,6.35
2023-05-24T16:21:47.947Z,7.22
2023-05-24T16:24:22.150Z,8.45
2023-05-24T16:26:51.305Z,6.65
2023-05-24T16:29:20.533Z,8.70
2023-05-24T16:31:55.236Z,6.68
2023-05-24T16:34:23.598Z,7.13
2023-05-24T16:36:52.110Z,6.60
2023-05-24T16:39:33.174Z,6.68
2023-05-24T16:42:09.058Z,6.18
2023-05-24T16:44:43.282Z,7.18
2023-05-24T16:47:11.167Z,8.35
2023-05-24T16:49:39.088Z,7.25
2023-05-24T16:52:14.219Z,6.82
2023-05-24T16:54:42.067Z,7.47
2023-05-24T16:57:11.362Z,7.63
2023-05-24T16:59:50.699Z,8.80
2023-05-24T17:02:18.798Z,7.30
2023-05-24T17:04:46.784Z,7.70
2023-05-24T17:07:21.051Z,6.40
2023-05-24T17:09:50.134Z,7.45
2023-05-24T17:12:19.940Z,8.75
2023-05-24T17:14:54.401Z,8.27
2023-05-24T17:17:22.408Z,6.72
2023-05-24T17:19:50.232Z,6.65
2023-05-24T17:22:25.206Z,6.95
2023-05-24T17:24:53.259Z,6.55
2023-05-24T17:27:22.759Z,6.20
2023-05-24T17:29:57.246Z,7.95
2023-05-24T17:32:25.750Z,6.20
2023-05-24T17:34:53.758Z,6.85
2023-05-24T17:37:42.265Z,7.15
2023-05-24T17:40:16.978Z,6.10
2023-05-24T17:42:53.218Z,6.20
2023-05-24T17:45:21.392Z,11.05
2023-05-24T17:47:49.709Z,7.43
2023-05-24T17:50:24.165Z,7.20
2023-05-24T17:52:52.204Z,6.78
2023-05-24T17:55:20.054Z,6.82
2023-05-24T17:57:56.329Z,6.53
2023-05-24T18:00:27.796Z,6.20
2023-05-24T18:02:55.834Z,6.53
2023-05-24T18:05:30.234Z,6.18
2023-05-24T18:08:00.374Z,6.40
2023-05-24T18:10:29.061Z,6.05
2023-05-24T18:13:05.367Z,6.72
2023-05-24T18:15:33.229Z,6.82
2023-05-24T18:18:01.610Z,6.70
2023-05-24T18:20:36.452Z,6.93
2023-05-24T18:23:04.622Z,6.15
2023-05-24T18:25:32.572Z,6.22
2023-05-24T18:28:08.493Z,7.57
2023-05-24T18:30:36.485Z,6.38
2023-05-24T18:33:08.226Z,7.18
2023-05-24T18:35:43.271Z,7.90
2023-05-24T18:38:18.126Z,6.13
2023-05-24T18:40:59.193Z,7.53
2023-05-24T18:43:28.319Z,6.63
2023-05-24T18:45:56.233Z,10.55
2023-05-24T18:48:30.251Z,7.50
2023-05-24T18:50:58.462Z,6.07
2023-05-24T18:53:26.962Z,6.82
2023-05-24T18:56:01.268Z,6.50
2023-05-24T18:58:31.256Z,7.00
2023-05-24T19:00:59.128Z,6.05
2023-05-24T19:03:34.208Z,6.65
2023-05-24T19:06:02.208Z,6.63
2023-05-24T19:08:30.061Z,5.95
2023-05-24T19:11:04.170Z,7.55
2023-05-24T19:13:34.944Z,7.53
2023-05-24T19:16:02.805Z,7.15
2023-05-24T19:18:37.357Z,8.05
2023-05-24T19:21:05.341Z,7.95
2023-05-24T19:23:35.359Z,7.80
2023-05-24T19:26:10.424Z,8.48
2023-05-24T19:28:41.907Z,10.98
2023-05-24T19:31:09.801Z,8.73
2023-05-24T19:33:56.035Z,8.70
2023-05-24T19:36:27.002Z,9.57
2023-05-24T19:39:08.240Z,10.10
2023-05-24T19:41:42.803Z,10.75
2023-05-24T19:44:19.495Z,13.00
2023-05-24T19:46:47.351Z,13.80
2023-05-24T19:49:15.257Z,10.23
2023-05-24T19:51:50.280Z,13.60
2023-05-24T19:54:18.350Z,10.73
2023-05-24T19:56:57.259Z,11.05
2023-05-24T19:59:26.698Z,13.57
2023-05-24T20:01:54.898Z,10.95
2023-05-24T20:04:29.164Z,12.20
2023-05-24T20:06:57.932Z,12.50
2023-05-24T20:09:25.761Z,12.73
2023-05-24T20:12:00.240Z,13.10
2023-05-24T20:14:31.317Z,12.23
2023-05-24T20:16:59.276Z,12.30
2023-05-24T20:19:34.584Z,12.25
2023-05-24T20:22:02.475Z,12.15
2023-05-24T20:24:30.683Z,12.75
2023-05-24T20:27:05.574Z,13.85
2023-05-24T20:29:34.973Z,12.82
2023-05-24T20:32:02.820Z,14.70
2023-05-24T20:34:37.341Z,15.20
2023-05-24T20:37:05.669Z,13.32
2023-05-24T20:39:47.322Z,13.60
2023-05-24T20:42:15.152Z,13.43
2023-05-24T20:44:44.398Z,13.65
2023-05-24T20:47:19.280Z,13.43
2023-05-24T20:49:47.197Z,12.05
2023-05-24T20:52:17.507Z,14.73
2023-05-24T20:54:52.323Z,13.10
2023-05-24T20:57:20.138Z,14.25
2023-05-24T20:59:49.567Z,13.43
2023-05-24T21:02:24.946Z,14.33
2023-05-24T21:04:52.837Z,16.23
2023-05-24T21:07:20.874Z,14.20
2023-05-24T21:09:55.306Z,18.88
2023-05-24T21:12:23.109Z,15.87
2023-05-24T21:14:53.695Z,13.73
2023-05-24T21:17:28.375Z,15.05
2023-05-24T21:19:56.326Z,15.88
2023-05-24T21:22:24.090Z,15.33
2023-05-24T21:24:58.370Z,18.33
2023-05-24T21:27:27.357Z,15.82
2023-05-24T21:29:56.766Z,15.23
2023-05-24T21:32:31.474Z,15.13
2023-05-24T21:34:59.360Z,13.90
2023-05-24T21:37:27.438Z,15.00
2023-05-24T21:40:02.357Z,13.87
2023-05-24T21:42:37.202Z,16.08
2023-05-24T21:45:14.159Z,13.00
2023-05-24T21:47:42.730Z,13.47
2023-05-24T21:50:11.070Z,12.40
2023-05-24T21:52:46.247Z,11.97
2023-05-24T21:55:14.156Z,12.03
2023-05-24T21:57:42.002Z,17.73
2023-05-24T22:00:20.134Z,14.53
2023-05-24T22:02:48.369Z,15.90
2023-05-24T22:05:16.487Z,14.17
2023-05-24T22:07:51.289Z,13.07
2023-05-24T22:10:19.305Z,12.63
2023-05-24T22:12:49.363Z,16.90
2023-05-24T22:15:25.170Z,15.00
2023-05-24T22:17:53.109Z,15.67
2023-05-24T22:20:21.249Z,18.07
2023-05-24T22:23:00.328Z,16.50
2023-05-24T22:25:28.146Z,15.90
2023-05-24T22:27:56.631Z,18.67
2023-05-24T22:30:33.306Z,18.10
2023-05-24T22:33:07.857Z,18.10
2023-05-24T22:35:42.303Z,16.37
2023-05-24T22:38:10.583Z,17.13
2023-05-24T22:40:53.301Z,16.47
2023-05-24T22:43:21.110Z,15.53
2023-05-24T22:45:51.501Z,18.57
2023-05-24T22:48:28.298Z,21.57
2023-05-24T22:50:57.373Z,21.50
2023-05-24T22:53:25.314Z,23.77
2023-05-24T22:56:00.297Z,18.77
2023-05-24T22:58:28.115Z,21.37
2023-05-24T23:00:57.688Z,20.93
2023-05-24T23:03:32.294Z,22.40
2023-05-24T23:06:04.041Z,23.60
2023-05-24T23:08:39.269Z,24.40
2023-05-24T23:11:10.403Z,28.07
2023-05-24T23:13:48.411Z,24.47
2023-05-24T23:16:18.069Z,24.17
2023-05-24T23:18:46.333Z,24.57
2023-05-24T23:21:23.333Z,25.63
2023-05-24T23:23:51.399Z,27.07
2023-05-24T23:26:19.370Z,29.23
2023-05-24T23:28:54.294Z,34.17
2023-05-24T23:31:23.765Z,36.73
2023-05-24T23:33:52.175Z,35.40
2023-05-24T23:36:26.482Z,34.50
2023-05-24T23:39:07.397Z,33.27
2023-05-24T23:41:42.298Z,29.93
2023-05-24T23:44:10.171Z,26.90
2023-05-24T23:46:40.668Z,29.20
2023-05-24T23:49:15.226Z,31.77
2023-05-24T23:51:43.088Z,26.80
2023-05-24T23:54:11.315Z,26.93
2023-05-24T23:56:46.268Z,26.57
2023-05-24T23:59:14.359Z,26.60
